createdAt,value
2023-01-05T00:01:34.183Z,100376.47
2023-01-05T00:04:01.892Z,100390.72
2023-01-05T00:06:30.039Z,100386.28
2023-01-05T00:08:58.989Z,100379.88
2023-01-05T00:11:44.123Z,100383.59
2023-01-05T00:14:30.473Z,100392.38
2023-01-05T00:17:15.483Z,100376.47
2023-01-05T00:20:00.368Z,100385.31
2023-01-05T00:22:34.959Z,100375.31
2023-01-05T00:25:11.526Z,100380.72
2023-01-05T00:27:39.603Z,100367.38
2023-01-05T00:30:08.321Z,100361.97
2023-01-05T00:32:35.928Z,100378.19
2023-01-05T00:35:03.576Z,100378.19
2023-01-05T00:37:31.884Z,100378.19
2023-01-05T00:39:59.573Z,100377.34
2023-01-05T00:42:29.243Z,100381.88
2023-01-05T00:44:56.821Z,100378.19
2023-01-05T00:47:24.454Z,100374.78
2023-01-05T00:49:52.089Z,100373.91
2023-01-05T00:52:19.685Z,100381.03
2023-01-05T00:54:47.326Z,100388.16
2023-01-05T00:57:15.562Z,100375.63
2023-01-05T00:59:44.592Z,100377.34
2023-01-05T01:02:12.449Z,100376.47
2023-01-05T01:04:40.538Z,100382.75
2023-01-05T01:07:08.246Z,100374.47
2023-01-05T01:09:35.822Z,100421.44
2023-01-05T01:12:03.458Z,100379.03
2023-01-05T01:14:31.489Z,100375.31
2023-01-05T01:17:00.853Z,100379.88
2023-01-05T01:19:28.603Z,100382.75
2023-01-05T01:21:56.210Z,100379.88
2023-01-05T01:24:24.422Z,100386.13
2023-01-05T01:26:52.043Z,100388.84
2023-01-05T01:29:19.896Z,100399.81
2023-01-05T01:31:48.056Z,100394.41
2023-01-05T01:34:17.200Z,100398.97
2023-01-05T01:36:44.863Z,100400.66
2023-01-05T01:39:13.682Z,100394.41
2023-01-05T01:41:44.666Z,100402.34
2023-01-05T01:44:31.238Z,100402.34
2023-01-05T01:46:58.784Z,100390.72
2023-01-05T01:49:27.779Z,100393.41
2023-01-05T01:51:55.500Z,100389.00
2023-01-05T01:54:23.111Z,100389.84
2023-01-05T01:56:51.374Z,100396.13
2023-01-05T01:59:18.987Z,100393.56
2023-01-05T02:01:47.744Z,100398.97
2023-01-05T02:04:15.501Z,100394.41
2023-01-05T02:06:44.519Z,100402.34
2023-01-05T02:09:12.119Z,100396.13
2023-01-05T02:11:42.625Z,100391.53
2023-01-05T02:14:22.031Z,100391.53
2023-01-05T02:16:53.000Z,100391.53
2023-01-05T02:19:31.425Z,100389.69
2023-01-05T02:22:02.564Z,100394.25
2023-01-05T02:24:51.482Z,100372.78
2023-01-05T02:27:37.125Z,100378.88
2023-01-05T02:30:19.702Z,100380.72
2023-01-05T02:32:51.110Z,100383.44
2023-01-05T02:35:21.028Z,100379.88
2023-01-05T02:37:49.733Z,100370.75
2023-01-05T02:40:19.991Z,100373.31
2023-01-05T02:42:47.931Z,100369.91
2023-01-05T02:45:16.639Z,100376.16
2023-01-05T02:47:44.464Z,100389.69
2023-01-05T02:50:15.970Z,100393.25
2023-01-05T02:52:47.641Z,100390.41
2023-01-05T02:55:19.257Z,100382.44
2023-01-05T02:57:50.817Z,100374.19
2023-01-05T03:00:23.434Z,100385.00
2023-01-05T03:02:51.809Z,100390.41
2023-01-05T03:05:22.404Z,100385.00
2023-01-05T03:07:50.057Z,100388.69
2023-01-05T03:10:35.169Z,100390.41
2023-01-05T03:13:23.869Z,100384.13
2023-01-05T03:15:51.516Z,100391.25
2023-01-05T03:18:20.193Z,100401.22
2023-01-05T03:20:53.106Z,100378.72
2023-01-05T03:23:38.405Z,100382.44
2023-01-05T03:26:24.587Z,100386.84
2023-01-05T03:29:10.207Z,100384.13
2023-01-05T03:31:57.826Z,100393.94
2023-01-05T03:34:46.005Z,100385.16
2023-01-05T03:37:16.217Z,100388.53
2023-01-05T03:39:44.532Z,100385.84
2023-01-05T03:42:12.255Z,100390.41
2023-01-05T03:44:40.005Z,100391.25
2023-01-05T03:47:10.421Z,100390.41
2023-01-05T03:49:38.246Z,100401.22
2023-01-05T03:52:06.046Z,100390.41
2023-01-05T03:54:35.415Z,100395.81
2023-01-05T03:57:03.250Z,100396.66
2023-01-05T03:59:31.424Z,100392.09
2023-01-05T04:02:00.332Z,100405.59
2023-01-05T04:04:28.785Z,100401.22
2023-01-05T04:06:57.040Z,100396.66
2023-01-05T04:09:25.452Z,100412.88
2023-01-05T04:11:54.497Z,100409.19
2023-01-05T04:14:22.199Z,100426.41
2023-01-05T04:16:49.873Z,100420.00
2023-01-05T04:19:23.775Z,100413.72
2023-01-05T04:21:53.980Z,100420.53
2023-01-05T04:24:23.670Z,100419.66
2023-01-05T04:26:51.303Z,100427.97
2023-01-05T04:29:23.248Z,100430.66
2023-01-05T04:31:52.361Z,100425.41
2023-01-05T04:34:21.010Z,100424.53
2023-01-05T04:36:50.716Z,100429.94
2023-01-05T04:39:21.117Z,100429.94
2023-01-05T04:41:50.498Z,100422.84
2023-01-05T04:44:20.224Z,100424.53
2023-01-05T04:46:50.753Z,100428.25
2023-01-05T04:49:19.550Z,100429.94
2023-01-05T04:51:50.084Z,100418.28
2023-01-05T04:54:20.210Z,100429.09
2023-01-05T04:56:48.318Z,100435.34
2023-01-05T04:59:15.924Z,100439.06
2023-01-05T05:01:44.941Z,100438.19
2023-01-05T05:04:15.529Z,100444.47
2023-01-05T05:06:43.263Z,100445.31
2023-01-05T05:09:12.047Z,100441.94
2023-01-05T05:11:40.340Z,100449.03
2023-01-05T05:14:09.318Z,100438.34
2023-01-05T05:16:37.154Z,100443.75
2023-01-05T05:19:07.001Z,100457.28
2023-01-05T05:21:36.087Z,100458.31
2023-01-05T05:24:05.487Z,100461.84
2023-01-05T05:26:37.659Z,100467.25
2023-01-05T05:29:05.328Z,100459.28
2023-01-05T05:31:33.089Z,100467.25
2023-01-05T05:34:00.748Z,100466.41
2023-01-05T05:36:28.340Z,100466.41
2023-01-05T05:38:58.724Z,100453.88
2023-01-05T05:41:26.388Z,100454.72
2023-01-05T05:43:54.026Z,100454.72
2023-01-05T05:46:21.707Z,100455.59
2023-01-05T05:48:49.404Z,100444.78
2023-01-05T05:51:16.984Z,100447.47
2023-01-05T05:53:44.561Z,100445.78
2023-01-05T05:56:13.517Z,100447.63
2023-01-05T05:58:41.079Z,100454.72
2023-01-05T06:01:08.780Z,100471.81
2023-01-05T06:03:36.468Z,100466.41
2023-01-05T06:06:04.660Z,100455.59
2023-01-05T06:08:32.288Z,100477.38
2023-01-05T06:10:59.848Z,100486.31
2023-01-05T06:13:28.844Z,100484.59
2023-01-05T06:15:56.610Z,100488.19
2023-01-05T06:18:24.266Z,100500.84
2023-01-05T06:20:56.279Z,100512.53
2023-01-05T06:23:27.126Z,100512.53
2023-01-05T06:25:54.739Z,100511.66
2023-01-05T06:28:22.313Z,100507.97
2023-01-05T06:30:51.264Z,100501.72
2023-01-05T06:33:19.163Z,100512.53
2023-01-05T06:35:46.682Z,100511.66
2023-01-05T06:38:16.041Z,100517.06
2023-01-05T06:40:44.580Z,100523.34
2023-01-05T06:43:12.239Z,100517.78
2023-01-05T06:45:39.880Z,100529.59
2023-01-05T06:48:08.913Z,100534.16
2023-01-05T06:50:36.580Z,100534.16
2023-01-05T06:53:04.422Z,100530.44
2023-01-05T06:55:32.095Z,100534.84
2023-01-05T06:58:01.296Z,100540.94
2023-01-05T07:00:29.257Z,100537.25
2023-01-05T07:02:56.929Z,100543.50
2023-01-05T07:05:25.875Z,100557.03
2023-01-05T07:07:53.531Z,100565.13
2023-01-05T07:10:21.420Z,100543.50
2023-01-05T07:12:49.171Z,100548.06
2023-01-05T07:15:16.838Z,100564.28
2023-01-05T07:17:44.435Z,100568.72
2023-01-05T07:20:12.015Z,100575.38
2023-01-05T07:22:41.019Z,100590.47
2023-01-05T07:25:08.897Z,100566.00
2023-01-05T07:27:36.688Z,100577.78
2023-01-05T07:30:04.387Z,100578.78
2023-01-05T07:32:32.011Z,100583.19
2023-01-05T07:34:59.673Z,100580.50
2023-01-05T07:37:27.560Z,100575.09
2023-01-05T07:39:56.546Z,100585.91
2023-01-05T07:42:24.322Z,100583.06
2023-01-05T07:44:52.226Z,100585.75
2023-01-05T07:47:20.121Z,100601.84
2023-01-05T07:49:47.762Z,100601.00
2023-01-05T07:52:15.353Z,100605.38
2023-01-05T07:54:42.940Z,100607.25
2023-01-05T07:57:11.900Z,100602.69
2023-01-05T07:59:39.492Z,100603.56
2023-01-05T08:02:07.226Z,100617.78
2023-01-05T08:04:35.215Z,100610.66
2023-01-05T08:07:02.880Z,100615.91
2023-01-05T08:09:47.976Z,100619.50
2023-01-05T08:12:16.906Z,100624.03
2023-01-05T08:14:44.529Z,100630.31
2023-01-05T08:17:12.391Z,100642.81
2023-01-05T08:19:39.946Z,100634.72
2023-01-05T08:22:07.506Z,100647.38
2023-01-05T08:24:35.369Z,100649.94
2023-01-05T08:27:02.996Z,100655.50
2023-01-05T08:29:32.010Z,100665.34
2023-01-05T08:31:59.631Z,100658.06
2023-01-05T08:34:32.884Z,100666.19
2023-01-05T08:37:02.431Z,100667.91
2023-01-05T08:39:30.096Z,100677.00
2023-01-05T08:42:02.579Z,100667.91
2023-01-05T08:44:32.003Z,100675.00
2023-01-05T08:46:59.623Z,100667.75
2023-01-05T08:49:27.238Z,100691.22
2023-01-05T08:51:54.877Z,100692.94
2023-01-05T08:54:22.511Z,100686.69
2023-01-05T08:56:50.856Z,100687.53
2023-01-05T08:59:18.545Z,100698.34
2023-01-05T09:01:47.727Z,100687.53
2023-01-05T09:04:15.552Z,100702.03
2023-01-05T09:06:43.145Z,100704.59
2023-01-05T09:09:10.771Z,100709.16
2023-01-05T09:11:38.398Z,100702.03
2023-01-05T09:14:06.451Z,100709.16
2023-01-05T09:17:05.045Z,100716.25
2023-01-05T09:19:48.218Z,100716.25
2023-01-05T09:22:15.879Z,100727.97
2023-01-05T09:27:21.439Z,100718.00
2023-01-05T09:29:49.020Z,100718.84
2023-01-05T09:32:16.570Z,100735.94
2023-01-05T09:34:44.208Z,100715.97
2023-01-05T09:37:11.826Z,100734.91
2023-01-05T09:39:39.533Z,100750.16
2023-01-05T09:42:07.422Z,100740.19
2023-01-05T09:44:37.778Z,100746.47
2023-01-05T09:47:06.395Z,100751.88
2023-01-05T09:49:34.419Z,100732.94
2023-01-05T09:52:02.926Z,100738.22
2023-01-05T09:54:31.634Z,100762.56
2023-01-05T09:57:08.955Z,100760.69
2023-01-05T09:59:39.235Z,100767.84
2023-01-05T10:02:08.516Z,100773.25
2023-01-05T10:04:36.317Z,100784.91
2023-01-05T10:07:04.599Z,100778.66
2023-01-05T10:09:33.150Z,100783.94
2023-01-05T10:12:18.664Z,100776.66
2023-01-05T10:14:48.270Z,100793.72
2023-01-05T10:17:40.326Z,100796.56
2023-01-05T10:20:04.019Z,100796.44
2023-01-05T10:22:38.887Z,100810.84
2023-01-05T10:25:09.055Z,100792.88
2023-01-05T10:27:38.076Z,100800.00
2023-01-05T10:30:10.820Z,100797.44
2023-01-05T10:32:49.619Z,100799.13
2023-01-05T10:38:14.673Z,100803.44
2023-01-05T10:40:45.521Z,100820.78
2023-01-05T10:43:20.750Z,100829.91
2023-01-05T10:46:28.266Z,100836.31
2023-01-05T10:48:37.455Z,100837.31
2023-01-05T10:51:05.344Z,100834.47
2023-01-05T10:53:34.882Z,100851.56
2023-01-05T10:56:03.977Z,100850.69
2023-01-05T10:58:31.838Z,100850.69
2023-01-05T11:01:01.337Z,100846.16
2023-01-05T11:03:57.330Z,100845.28
2023-01-05T11:06:20.075Z,100856.09
2023-01-05T11:08:47.643Z,100845.28
2023-01-05T11:11:21.165Z,100852.41
2023-01-05T11:13:49.039Z,100873.22
2023-01-05T11:16:20.215Z,100875.78
2023-01-05T11:18:49.131Z,100874.91
2023-01-05T11:21:17.142Z,100868.66
2023-01-05T11:23:45.188Z,100874.91
2023-01-05T11:26:15.323Z,100873.06
2023-01-05T11:28:43.691Z,100881.19
2023-01-05T11:31:11.307Z,100881.19
2023-01-05T11:33:40.501Z,100887.44
2023-01-05T11:36:10.477Z,100885.72
2023-01-05T11:38:38.069Z,100881.19
2023-01-05T11:41:05.738Z,100887.44
2023-01-05T11:43:33.983Z,100875.78
2023-01-05T11:46:02.588Z,100897.41
2023-01-05T11:48:32.014Z,100893.69
2023-01-05T11:51:01.032Z,100895.44
2023-01-05T11:53:36.822Z,100889.16
2023-01-05T11:56:04.929Z,100884.59
2023-01-05T11:58:33.108Z,100909.66
2023-01-05T12:01:21.717Z,100913.38
2023-01-05T12:04:08.581Z,100918.78
2023-01-05T12:06:55.534Z,100911.53
2023-01-05T12:09:26.446Z,100908.81
2023-01-05T12:11:58.461Z,100942.13
2023-01-05T12:14:29.638Z,100908.81
2023-01-05T12:16:57.207Z,100914.22
2023-01-05T12:19:37.515Z,100979.16
2023-01-05T12:22:25.808Z,100923.06
2023-01-05T12:24:56.258Z,100935.59
2023-01-05T12:27:27.625Z,100955.53
2023-01-05T12:36:00.748Z,100967.19
2023-01-05T12:38:40.765Z,100976.31
2023-01-05T12:41:19.067Z,100979.16
2023-01-05T12:43:48.702Z,100985.44
2023-01-05T12:46:19.778Z,100991.72
2023-01-05T12:48:48.427Z,100990.56
2023-01-05T12:51:17.847Z,100986.00
2023-01-05T12:53:48.446Z,101001.38
2023-01-05T12:56:18.400Z,100990.56
2023-01-05T12:58:52.144Z,101004.09
2023-01-05T13:01:22.847Z,100999.66
2023-01-05T13:03:50.926Z,101005.94
2023-01-05T13:06:19.033Z,101008.78
2023-01-05T13:08:48.923Z,101016.91
2023-01-05T13:11:17.547Z,101020.47
2023-01-05T13:13:46.207Z,101025.03
2023-01-05T13:16:14.312Z,101031.56
2023-01-05T13:18:43.267Z,101016.22
2023-01-05T13:21:15.004Z,101033.28
2023-01-05T13:23:43.636Z,101043.25
2023-01-05T13:26:15.213Z,101062.22
2023-01-05T13:28:42.798Z,101048.69
2023-01-05T13:31:22.147Z,101062.34
2023-01-05T13:33:57.297Z,101059.78
2023-01-05T13:36:26.903Z,101068.88
2023-01-05T13:39:11.801Z,101076.00
2023-01-05T13:41:48.896Z,101078.72
2023-01-05T13:44:30.455Z,101071.16
2023-01-05T13:47:06.025Z,101073.03
2023-01-05T13:49:38.790Z,101089.97
2023-01-05T13:52:06.408Z,101080.00
2023-01-05T13:54:49.370Z,101084.56
2023-01-05T13:57:24.132Z,101103.50
2023-01-05T14:00:04.055Z,101104.50
2023-01-05T14:02:40.008Z,101106.47
2023-01-05T14:05:08.679Z,101114.47
2023-01-05T14:07:36.401Z,101117.03
2023-01-05T14:10:04.109Z,101117.03
2023-01-05T14:12:46.318Z,101103.66
2023-01-05T14:15:30.697Z,101126.13
2023-01-05T14:17:58.917Z,101130.72
2023-01-05T14:20:33.296Z,101137.22
2023-01-05T14:23:00.970Z,101145.22
2023-01-05T14:25:47.819Z,101151.50
2023-01-05T14:28:24.028Z,101142.38
2023-01-05T14:30:52.037Z,101167.75
2023-01-05T14:33:19.867Z,101178.56
2023-01-05T14:35:47.620Z,101179.41
2023-01-05T14:38:19.484Z,101189.41
2023-01-05T14:40:48.865Z,101193.78
2023-01-05T14:43:24.995Z,101180.25
2023-01-05T14:46:00.740Z,101194.81
2023-01-05T14:48:29.318Z,101195.66
2023-01-05T14:51:11.768Z,101188.25
2023-01-05T14:53:43.038Z,101220.72
2023-01-05T14:56:20.922Z,101216.16
2023-01-05T14:58:53.706Z,101224.28
2023-01-05T15:01:22.382Z,101237.81
2023-01-05T15:03:52.027Z,101243.22
2023-01-05T15:06:20.299Z,101258.59
2023-01-05T15:09:02.726Z,101256.63
2023-01-05T15:11:42.648Z,101262.91
2023-01-05T15:14:35.113Z,101272.00
2023-01-05T15:17:25.767Z,101278.28
2023-01-05T15:20:00.233Z,101283.69
2023-01-05T15:22:38.000Z,101278.28
2023-01-05T15:25:09.335Z,101289.97
2023-01-05T15:27:52.922Z,101296.25
2023-01-05T15:30:30.285Z,101299.91
2023-01-05T15:33:01.401Z,101295.38
2023-01-05T15:35:30.228Z,101317.03
2023-01-05T15:37:58.085Z,101314.34
2023-01-05T15:40:29.558Z,101327.00
2023-01-05T15:42:57.602Z,101319.75
2023-01-05T15:45:25.652Z,101323.31
2023-01-05T15:47:54.677Z,101336.00
2023-01-05T15:50:22.893Z,101338.69
2023-01-05T15:52:54.087Z,101343.22
2023-01-05T15:55:22.033Z,101346.94
2023-01-05T15:57:53.204Z,101345.22
2023-01-05T16:00:21.448Z,101355.19
2023-01-05T16:02:49.066Z,101356.03
2023-01-05T16:05:19.499Z,101360.59
2023-01-05T16:07:48.059Z,101350.63
2023-01-05T16:10:21.852Z,101357.03
2023-01-05T16:12:53.702Z,101361.44
2023-01-05T16:15:22.005Z,101366.00
2023-01-05T16:17:49.871Z,101380.53
2023-01-05T16:20:20.077Z,101377.69
2023-01-05T16:22:49.113Z,101373.13
2023-01-05T16:25:17.632Z,101375.09
2023-01-05T16:27:45.777Z,101389.66
2023-01-05T16:30:14.060Z,101394.19
2023-01-05T16:32:41.955Z,101395.91
2023-01-05T16:35:33.256Z,101403.31
2023-01-05T16:38:14.079Z,101399.59
2023-01-05T16:40:42.358Z,101404.16
2023-01-05T16:43:13.762Z,101402.44
2023-01-05T16:45:42.642Z,101403.31
2023-01-05T16:48:15.649Z,101407.84
2023-01-05T16:51:01.144Z,101407.84
2023-01-05T16:53:30.095Z,101415.22
2023-01-05T16:56:00.727Z,101415.38
2023-01-05T16:58:36.108Z,101421.50
2023-01-05T17:01:15.832Z,101424.31
2023-01-05T17:03:43.713Z,101417.22
2023-01-05T17:06:13.375Z,101422.63
2023-01-05T17:08:42.364Z,101425.59
2023-01-05T17:11:12.100Z,101439.13
2023-01-05T17:13:41.247Z,101421.75
2023-01-05T17:16:10.929Z,101441.56
2023-01-05T17:18:38.694Z,101443.41
2023-01-05T17:21:06.754Z,101438.88
2023-01-05T17:23:36.567Z,101451.38
2023-01-05T17:26:06.101Z,101445.13
2023-01-05T17:28:33.708Z,101457.06
2023-01-05T17:31:01.376Z,101452.41
2023-01-05T17:33:28.940Z,101469.47
2023-01-05T17:35:56.576Z,101475.03
2023-01-05T17:38:24.187Z,101483.13
2023-01-05T17:40:51.908Z,101466.78
2023-01-05T17:43:20.920Z,101475.03
2023-01-05T17:45:48.532Z,101482.16
2023-01-05T17:48:16.743Z,101484.09
2023-01-05T17:50:44.640Z,101479.59
2023-01-05T17:53:12.332Z,101478.69
2023-01-05T17:55:40.622Z,101490.41
2023-01-05T17:58:08.255Z,101500.34
2023-01-05T18:00:41.676Z,101510.91
2023-01-05T18:03:10.154Z,101499.50
2023-01-05T18:05:37.957Z,101505.75
2023-01-05T18:10:33.320Z,101520.91
2023-01-05T18:13:00.871Z,101519.94
2023-01-05T18:15:28.506Z,101523.47
2023-01-05T18:17:58.588Z,101518.06
2023-01-05T18:20:26.129Z,101521.50
2023-01-05T18:22:54.275Z,101526.19
2023-01-05T18:25:21.796Z,101532.56
2023-01-05T18:27:49.385Z,101535.28
2023-01-05T18:30:16.991Z,101527.16
2023-01-05T18:32:44.603Z,101525.47
2023-01-05T18:35:13.600Z,101528.91
2023-01-05T18:37:41.276Z,101528.16
2023-01-05T18:40:09.843Z,101535.28
2023-01-05T18:42:37.401Z,101537.13
2023-01-05T18:45:14.187Z,101525.47
2023-01-05T18:47:53.070Z,101547.09
2023-01-05T18:50:22.002Z,101539.97
2023-01-05T18:52:49.644Z,101561.38
2023-01-05T18:55:17.272Z,101565.03
2023-01-05T18:57:44.916Z,101551.50
2023-01-05T19:00:13.206Z,101551.50
2023-01-05T19:02:40.808Z,101560.50
2023-01-05T19:05:08.922Z,101547.09
2023-01-05T19:07:38.849Z,101561.63
2023-01-05T19:10:06.762Z,101568.75
2023-01-05T19:12:34.380Z,101574.16
2023-01-05T19:15:01.986Z,101575.03
2023-01-05T19:17:29.558Z,101579.59
2023-01-05T19:19:57.569Z,101586.69
2023-01-05T19:22:25.333Z,101591.25
2023-01-05T19:24:54.379Z,101581.41
2023-01-05T19:27:22.468Z,101581.28
2023-01-05T19:29:50.096Z,101583.88
2023-01-05T19:32:17.736Z,101593.84
2023-01-05T19:34:45.321Z,101581.28
2023-01-05T19:37:12.951Z,101582.16
2023-01-05T19:39:40.541Z,101599.25
2023-01-05T19:42:09.517Z,101595.56
2023-01-05T19:44:37.151Z,101604.66
2023-01-05T19:47:04.777Z,101593.72
2023-01-05T19:49:32.489Z,101598.28
2023-01-05T19:52:00.059Z,101595.56
2023-01-05T19:54:28.834Z,101603.69
2023-01-05T19:56:56.479Z,101604.66
2023-01-05T19:59:26.596Z,101610.06
2023-01-05T20:01:56.153Z,101629.75
2023-01-05T20:04:23.896Z,101620.66
2023-01-05T20:06:51.555Z,101623.50
2023-01-05T20:09:19.331Z,101630.75
2023-01-05T20:11:48.783Z,101637.13
2023-01-05T20:14:17.260Z,101634.31
2023-01-05T20:16:47.627Z,101644.28
2023-01-05T20:19:15.409Z,101643.41
2023-01-05T20:21:42.950Z,101652.28
2023-01-05T20:24:11.994Z,101643.28
2023-01-05T20:26:39.611Z,101641.72
2023-01-05T20:29:07.588Z,101653.38
2023-01-05T20:31:35.678Z,101644.28
2023-01-05T20:34:05.190Z,101654.00
2023-01-05T20:36:32.871Z,101661.50
2023-01-05T20:39:00.559Z,101667.88
2023-01-05T20:41:28.582Z,101660.78
2023-01-05T20:43:56.250Z,101668.88
2023-01-05T20:46:27.338Z,101661.63
2023-01-05T20:48:55.043Z,101673.28
2023-01-05T20:51:24.210Z,101677.00
2023-01-05T20:53:51.917Z,101677.13
2023-01-05T20:56:19.983Z,101669.84
2023-01-05T20:58:47.626Z,101670.09
2023-01-05T21:01:15.427Z,101688.91
2023-01-05T21:03:43.133Z,101694.34
2023-01-05T21:06:11.103Z,101681.78
2023-01-05T21:08:41.364Z,101696.91
2023-01-05T21:11:15.934Z,101693.47
2023-01-05T21:13:44.110Z,101699.13
2023-01-05T21:16:15.881Z,101690.25
2023-01-05T21:18:46.607Z,101699.97
2023-01-05T21:21:14.746Z,101701.06
2023-01-05T21:23:43.875Z,101714.75
2023-01-05T21:26:15.496Z,101711.91
2023-01-05T21:28:43.255Z,101708.47
2023-01-05T21:31:11.539Z,101708.47
2023-01-05T21:33:40.264Z,101712.16
2023-01-05T21:36:07.994Z,101702.19
2023-01-05T21:39:01.883Z,101709.56
2023-01-05T21:41:38.430Z,101708.69
2023-01-05T21:44:07.239Z,101709.47
2023-01-05T21:46:34.855Z,101713.88
2023-01-05T21:49:02.512Z,101695.94
2023-01-05T21:51:47.815Z,101688.53
2023-01-05T21:54:32.807Z,101686.81
2023-01-05T21:57:01.929Z,101700.34
2023-01-05T21:59:30.753Z,101685.09
2023-01-05T22:01:58.338Z,101697.63
2023-01-05T22:04:25.956Z,101702.19
2023-01-05T22:06:53.513Z,101693.97
2023-01-05T22:09:21.165Z,101714.59
2023-01-05T22:11:48.778Z,101713.88
2023-01-05T22:14:17.753Z,101715.84
2023-01-05T22:16:45.377Z,101723.22
2023-01-05T22:19:12.926Z,101721.50
2023-01-05T22:21:40.468Z,101737.50
2023-01-05T22:24:08.910Z,101742.03
2023-01-05T22:26:36.466Z,101748.31
2023-01-05T22:29:04.133Z,101748.44
2023-01-05T22:31:33.103Z,101742.91
2023-01-05T22:34:01.080Z,101752.75
2023-01-05T22:36:28.895Z,101749.78
2023-01-05T22:38:56.575Z,101749.53
2023-01-05T22:41:24.494Z,101756.69
2023-01-05T22:43:52.078Z,101748.47
2023-01-05T22:46:20.128Z,101742.19
2023-01-05T22:48:49.614Z,101751.28
2023-01-05T22:51:18.454Z,101745.03
2023-01-05T22:53:46.131Z,101751.28
2023-01-05T22:56:13.965Z,101750.44
2023-01-05T22:58:42.047Z,101738.72
2023-01-05T23:01:10.088Z,101743.28
2023-01-05T23:03:37.672Z,101750.44
2023-01-05T23:06:06.856Z,101749.53
2023-01-05T23:08:34.604Z,101745.88
2023-01-05T23:11:02.327Z,101742.19
2023-01-05T23:13:29.866Z,101741.31
2023-01-05T23:15:57.481Z,101734.81
2023-01-05T23:18:25.090Z,101748.47
2023-01-05T23:20:53.237Z,101746.72
2023-01-05T23:23:22.434Z,101751.28
2023-01-05T23:25:50.019Z,101753.00
2023-01-05T23:28:18.130Z,101735.03
2023-01-05T23:30:46.558Z,101744.13
2023-01-05T23:33:14.135Z,101739.59
2023-01-05T23:35:41.704Z,101744.91
2023-01-05T23:38:09.266Z,101750.44
2023-01-05T23:40:42.888Z,101742.44
2023-01-05T23:43:11.434Z,101740.69
2023-01-05T23:45:40.150Z,101734.44
2023-01-05T23:48:09.181Z,101731.84
2023-01-05T23:50:36.786Z,101711.03
2023-01-05T23:53:04.536Z,101707.38
2023-01-05T23:55:32.110Z,101690.25
2023-01-05T23:58:01.104Z,101701.97
